Greenview, CA (96037)

11:20 PM PDT on September 02, 2014 (GMT -0700)
KCAETNA3 | Change Station
CLOSE
Current Station
Personal Weather Station
Location: Island Rd, Scott Valley, CA
Elevation: 2728 ft
Nearby Weather Stations
Active Advisory: Fire Weather Warning

Elev 2728 ft 41.55 °N, 122.85 °W | Updated 5 seconds ago

Clear
Clear
59.7 °F
Feels Like 59.7 °F
N
1.0
Wind Variable Wind from East
Gusts 2.0 mph

Today
High -- | Low -- °F
--% Chance of Precip.
Yesterday
High -- | Low -- °F
Precip. -- in
6:38 AM 7:42 PM
First Quarter, 59% visible
Pressure 29.90 in
Visibility 10.0 miles
Clouds Few 7000 ft
Dew Point 44 °F
Humidity 57%
Rainfall 0.00 in
Snow Depth Not available.
UV 0 out of 12
Pollen 6.10 out of 12
Air Quality Not available.
Flu Activity Not available.
METAR KSIY 030553Z AUTO 01008KT 10SM FEW070 19/06 A2993 RMK AO2 SLP123 T01890061 10311 20189 51022

More Conditions Fewer Conditions

Pressure 29.90 in
Visibility 10.0 miles
Clouds Few 7000 ft
Dew Point 44 °F
Humidity 57%
Rainfall 0.00 in
Snow Depth Not available.
UV 0 out of 12
Pollen 6.10 out of 12
Air Quality Not available.
Flu Activity Not available.
METAR KSIY 030553Z AUTO 01008KT 10SM FEW070 19/06 A2993 RMK AO2 SLP123 T01890061 10311 20189 51022

More Conditions Fewer Conditions

10-Day Weather Forecast

Almanac

Astronomy

Sep. 02, 2014 Rise Set
Actual Time 6:38 AM PDT 7:42 PM PDT
Civil Twilight 6:10 AM PDT 8:11 PM PDT
Nautical Twilight 5:36 AM PDT 8:45 PM PDT
Astronomical Twilight 5:00 AM PDT 9:20 PM PDT
Moon 2:33 PM PDT (9/2) No Moon Set
Length of Visible Light 14h 00m
Length of Day
13h 04m
Tomorrow will be 2m 41s shorter.
First Quarter, 59% of the Moon is Illuminated
Sep 3
First Quarter
Sep 8
Full
Sep 15
Last Quarter
Sep 24
New
Oct 1
First Quarter

Community

WunderPhotos

Upload Photos

1,749,888 photos uploaded!

Nearby

Snow Depth

Station Depth Elevation
Adin Mountain 1 in 6200 ft
Cedar Pass 0 in 7100 ft
CSS Lab 1 in 6900 ft
Tahoe City Cross 0 in 6750 ft
Echo Peak 0 in 7800 ft

Earthquake Activity

City Distance Mag. Time & Date
No recent earthquake activity has been reported nearby.
Minimum magnitude displayed is 2.5.

Coastal Water Temperatures

Place Temperature
No Stations Reporting

Nearby Weather Stations